createdAt,value
2023-03-01T00:01:54.768Z,6.93
2023-03-01T00:06:00.463Z,6.43
2023-03-01T00:10:06.883Z,6.93
2023-03-01T00:14:12.614Z,6.60
2023-03-01T00:18:18.171Z,6.40
2023-03-01T00:22:24.434Z,6.70
2023-03-01T00:26:30.419Z,6.37
2023-03-01T00:30:36.640Z,7.37
2023-03-01T00:34:42.274Z,7.07
2023-03-01T00:38:47.886Z,7.00
2023-03-01T00:42:53.411Z,6.70
2023-03-01T00:46:58.999Z,6.40
2023-03-01T00:51:08.507Z,6.63
2023-03-01T00:55:13.998Z,8.73
2023-03-01T00:59:19.444Z,7.23
2023-03-01T01:03:25.928Z,6.70
2023-03-01T01:07:31.531Z,6.80
2023-03-01T01:11:37.475Z,7.60
2023-03-01T01:15:43.223Z,7.43
2023-03-01T01:19:49.258Z,8.00
2023-03-01T01:23:55.290Z,6.90
2023-03-01T01:28:00.728Z,7.70
2023-03-01T01:32:06.522Z,8.20
2023-03-01T01:36:13.372Z,7.53
2023-03-01T01:40:19.148Z,7.27
2023-03-01T01:44:28.641Z,7.40
2023-03-01T01:48:51.407Z,7.40
2023-03-01T01:52:56.953Z,7.37
2023-03-01T01:57:12.325Z,7.17
2023-03-01T02:01:18.084Z,6.93
2023-03-01T02:05:55.037Z,7.30
2023-03-01T02:10:01.518Z,7.63
2023-03-01T02:14:07.434Z,7.27
2023-03-01T02:18:19.396Z,7.80
2023-03-01T02:22:25.890Z,7.30
2023-03-01T02:26:40.606Z,7.47
2023-03-01T02:31:08.096Z,6.63
2023-03-01T02:35:17.158Z,6.57
2023-03-01T02:39:48.934Z,5.90
2023-03-01T02:43:54.502Z,6.17
2023-03-01T02:48:00.037Z,6.87
2023-03-01T02:52:30.239Z,6.53
2023-03-01T02:56:36.563Z,6.23
2023-03-01T03:00:47.991Z,7.27
2023-03-01T03:04:53.570Z,6.50
2023-03-01T03:08:59.119Z,6.07
2023-03-01T03:13:09.733Z,6.73
2023-03-01T03:17:15.144Z,5.90
2023-03-01T03:21:20.595Z,6.77
2023-03-01T03:25:28.766Z,6.00
2023-03-01T03:29:34.952Z,7.23
2023-03-01T03:33:40.651Z,5.73
2023-03-01T03:38:04.445Z,5.67
2023-03-01T03:42:11.058Z,5.90
2023-03-01T03:46:18.007Z,6.03
2023-03-01T03:50:23.614Z,6.17
2023-03-01T03:54:29.059Z,6.03
2023-03-01T03:58:35.002Z,6.20
2023-03-01T04:02:42.704Z,5.37
2023-03-01T04:06:49.460Z,5.90
2023-03-01T04:11:22.677Z,5.43
2023-03-01T04:15:28.445Z,5.77
2023-03-01T04:19:36.964Z,5.90
2023-03-01T04:23:42.519Z,5.27
2023-03-01T04:27:48.051Z,6.07
2023-03-01T04:31:53.983Z,5.53
2023-03-01T04:35:59.610Z,6.00
2023-03-01T04:40:16.567Z,5.63
2023-03-01T04:44:22.080Z,5.30
2023-03-01T04:48:27.534Z,6.07
2023-03-01T04:52:33.076Z,6.00
2023-03-01T04:56:38.695Z,6.30
2023-03-01T05:00:44.314Z,5.87
2023-03-01T05:04:49.918Z,5.20
2023-03-01T05:08:55.443Z,5.23
2023-03-01T05:13:00.892Z,7.00
2023-03-01T05:17:07.153Z,7.17
2023-03-01T05:21:17.237Z,7.93
2023-03-01T05:25:23.201Z,8.67
2023-03-01T05:29:32.189Z,8.70
2023-03-01T05:33:41.971Z,8.60
2023-03-01T05:37:49.802Z,8.70
2023-03-01T05:42:02.109Z,9.53
2023-03-01T05:46:07.646Z,8.70
2023-03-01T05:50:20.792Z,8.50
2023-03-01T05:54:26.351Z,8.17
2023-03-01T05:58:31.840Z,8.50
2023-03-01T06:02:37.513Z,10.20
2023-03-01T06:06:42.999Z,9.00
2023-03-01T06:10:48.768Z,9.10
2023-03-01T06:14:54.318Z,9.47
2023-03-01T06:18:59.900Z,9.07
2023-03-01T06:23:05.410Z,8.47
2023-03-01T06:27:10.970Z,7.47
2023-03-01T06:31:16.633Z,10.23
2023-03-01T06:35:22.310Z,8.23
2023-03-01T06:39:29.143Z,9.83
2023-03-01T06:43:34.728Z,10.30
2023-03-01T06:47:40.261Z,9.60
2023-03-01T06:51:46.097Z,8.27
2023-03-01T06:55:58.798Z,8.47
2023-03-01T07:00:09.135Z,8.60
2023-03-01T07:04:14.948Z,8.87
2023-03-01T07:08:20.933Z,9.60
2023-03-01T07:12:26.602Z,9.40
2023-03-01T07:16:32.363Z,9.83
2023-03-01T07:20:38.056Z,9.13
2023-03-01T07:24:44.677Z,9.43
2023-03-01T07:28:50.187Z,11.37
2023-03-01T07:32:58.013Z,9.87
2023-03-01T07:37:03.567Z,9.70
2023-03-01T07:41:09.555Z,8.10
2023-03-01T07:45:15.112Z,8.03
2023-03-01T07:49:21.368Z,9.57
2023-03-01T07:53:27.070Z,9.13
2023-03-01T07:57:32.635Z,10.00
2023-03-01T08:01:38.163Z,10.30
2023-03-01T08:05:43.708Z,9.83
2023-03-01T08:09:49.304Z,9.50
2023-03-01T08:13:55.362Z,8.73
2023-03-01T08:18:01.807Z,8.80
2023-03-01T08:22:07.607Z,7.90
2023-03-01T08:26:19.754Z,8.87
2023-03-01T08:30:25.334Z,7.87
2023-03-01T08:34:32.236Z,8.30
2023-03-01T08:38:37.806Z,7.80
2023-03-01T08:42:43.958Z,8.07
2023-03-01T08:46:51.038Z,8.20
2023-03-01T08:50:57.202Z,7.80
2023-03-01T08:55:02.710Z,7.93
2023-03-01T08:59:08.625Z,8.20
2023-03-01T09:03:14.104Z,8.37
2023-03-01T09:07:19.837Z,8.70
2023-03-01T09:11:25.674Z,8.37
2023-03-01T09:15:31.238Z,7.87
2023-03-01T09:19:36.748Z,8.60
2023-03-01T09:23:45.559Z,7.53
2023-03-01T09:27:55.526Z,8.13
2023-03-01T09:32:01.655Z,7.53
2023-03-01T09:36:14.644Z,8.20
2023-03-01T09:40:24.589Z,8.30
2023-03-01T09:44:51.015Z,9.33
2023-03-01T09:49:06.930Z,8.40
2023-03-01T09:53:18.822Z,9.63
2023-03-01T09:57:37.322Z,9.87
2023-03-01T10:01:54.453Z,12.57
2023-03-01T10:06:34.397Z,14.70
2023-03-01T10:10:48.114Z,11.17
2023-03-01T10:15:13.506Z,10.70
2023-03-01T10:19:30.141Z,9.67
2023-03-01T10:23:36.998Z,10.40
2023-03-01T10:27:52.604Z,10.00
2023-03-01T10:31:58.189Z,9.57
2023-03-01T10:36:04.232Z,10.43
2023-03-01T10:40:11.299Z,9.87
2023-03-01T10:44:41.316Z,10.37
2023-03-01T10:48:46.871Z,11.23
2023-03-01T10:53:05.937Z,12.10
2023-03-01T10:57:40.661Z,9.77
2023-03-01T11:02:24.594Z,8.83
2023-03-01T11:06:31.386Z,7.20
2023-03-01T11:10:37.906Z,6.47
2023-03-01T11:14:55.760Z,7.57
2023-03-01T11:19:22.547Z,7.20
2023-03-01T11:23:30.324Z,5.57
2023-03-01T11:27:42.232Z,7.23
2023-03-01T11:31:57.230Z,6.67
2023-03-01T11:36:07.345Z,7.20
2023-03-01T11:40:28.737Z,7.23
2023-03-01T11:44:38.633Z,7.03
2023-03-01T11:49:20.089Z,8.23
2023-03-01T11:53:52.385Z,8.10
2023-03-01T11:58:40.400Z,12.85
2023-03-01T12:03:16.847Z,9.53
2023-03-01T12:07:50.746Z,7.70
2023-03-01T12:12:32.204Z,8.20
2023-03-01T12:17:08.425Z,8.03
2023-03-01T12:22:05.450Z,6.93
2023-03-01T12:26:53.221Z,5.77
2023-03-01T12:32:01.775Z,6.30
2023-03-01T12:36:35.219Z,6.07
2023-03-01T12:41:21.991Z,5.90
2023-03-01T12:46:12.513Z,5.37
2023-03-01T12:50:21.522Z,10.23
2023-03-01T12:54:34.599Z,5.83
2023-03-01T12:59:17.325Z,14.57
2023-03-01T13:03:44.704Z,7.17
2023-03-01T13:08:39.198Z,6.40
2023-03-01T13:12:53.839Z,6.17
2023-03-01T13:16:59.497Z,5.53
2023-03-01T13:21:06.622Z,5.87
2023-03-01T13:25:21.002Z,5.67
2023-03-01T13:29:28.204Z,5.60
2023-03-01T13:33:37.448Z,5.30
2023-03-01T13:37:45.355Z,5.77
2023-03-01T13:41:54.433Z,5.77
2023-03-01T13:46:01.297Z,5.23
2023-03-01T13:50:08.432Z,5.93
2023-03-01T13:54:16.525Z,6.33
2023-03-01T14:02:33.351Z,5.70
2023-03-01T14:06:39.062Z,6.10
2023-03-01T14:11:01.321Z,5.80
2023-03-01T14:15:37.612Z,6.60
2023-03-01T14:19:46.867Z,7.20
2023-03-01T14:23:53.374Z,6.80
2023-03-01T14:28:12.335Z,7.17
2023-03-01T14:32:26.466Z,7.47
2023-03-01T14:36:34.961Z,7.00
2023-03-01T14:40:40.502Z,6.97
2023-03-01T14:44:49.932Z,6.73
2023-03-01T14:49:06.398Z,6.00
2023-03-01T14:53:50.993Z,6.50
2023-03-01T14:57:58.340Z,6.30
2023-03-01T15:02:04.328Z,7.63
2023-03-01T15:06:13.017Z,7.50
2023-03-01T15:10:32.215Z,7.10
2023-03-01T15:14:49.522Z,6.93
2023-03-01T15:19:08.456Z,6.67
2023-03-01T15:23:28.056Z,7.20
2023-03-01T15:27:33.583Z,7.53
2023-03-01T15:31:42.427Z,7.93
2023-03-01T16:25:46.742Z,7.07
2023-03-01T16:29:52.248Z,5.40
2023-03-01T16:33:59.724Z,5.90
2023-03-01T16:38:05.282Z,6.93
2023-03-01T16:42:10.774Z,6.00
2023-03-01T16:46:24.008Z,6.57
2023-03-01T16:50:29.540Z,6.07
2023-03-01T16:54:35.112Z,6.20
2023-03-01T16:58:41.642Z,6.80
2023-03-01T17:02:47.261Z,7.07
2023-03-01T17:06:52.911Z,6.03
2023-03-01T17:11:23.620Z,7.03
2023-03-01T17:15:29.336Z,8.17
2023-03-01T17:19:36.263Z,6.87
2023-03-01T17:23:44.696Z,6.33
2023-03-01T17:27:50.440Z,6.43
2023-03-01T17:31:56.776Z,6.97
2023-03-01T17:36:02.611Z,7.30
2023-03-01T17:40:09.809Z,9.20
2023-03-01T17:44:15.427Z,8.37
2023-03-01T17:48:21.191Z,8.33
2023-03-01T17:52:27.228Z,7.30
2023-03-01T17:56:33.895Z,7.97
2023-03-01T18:00:39.761Z,8.27
2023-03-01T18:04:45.282Z,8.33
2023-03-01T18:08:52.237Z,8.50
2023-03-01T18:12:57.811Z,9.33
2023-03-01T18:17:06.315Z,8.70
2023-03-01T18:21:13.632Z,8.90
2023-03-01T18:25:20.294Z,9.40
2023-03-01T18:29:25.888Z,8.57
2023-03-01T18:33:32.059Z,8.57
2023-03-01T18:37:38.430Z,10.00
2023-03-01T18:41:43.962Z,9.50
2023-03-01T18:45:49.875Z,9.97
2023-03-01T18:49:55.420Z,11.10
2023-03-01T18:54:01.702Z,10.10
2023-03-01T18:58:07.238Z,10.10
2023-03-01T19:02:15.538Z,9.20
2023-03-01T19:06:21.448Z,9.40
2023-03-01T19:10:28.246Z,10.37
2023-03-01T19:14:33.921Z,8.80
2023-03-01T19:18:42.535Z,9.30
2023-03-01T19:22:47.971Z,10.40
2023-03-01T19:26:56.664Z,11.40
2023-03-01T19:31:05.811Z,10.53
2023-03-01T19:35:11.501Z,11.40
2023-03-01T19:39:17.466Z,11.97
2023-03-01T19:43:24.308Z,10.83
2023-03-01T19:47:29.908Z,11.50
2023-03-01T19:51:38.823Z,10.37
2023-03-01T19:55:44.571Z,10.70
2023-03-01T19:59:50.130Z,10.60
2023-03-01T20:03:56.224Z,9.37
2023-03-01T20:08:01.794Z,9.67
2023-03-01T20:12:07.652Z,9.30
2023-03-01T20:16:17.749Z,9.67
2023-03-01T20:20:23.515Z,9.70
2023-03-01T20:24:31.858Z,8.90
2023-03-01T20:28:37.440Z,8.57
2023-03-01T20:32:43.258Z,8.20
2023-03-01T20:36:49.185Z,8.17
2023-03-01T20:41:12.676Z,7.63
2023-03-01T20:45:18.907Z,8.17
2023-03-01T20:49:24.575Z,8.20
2023-03-01T20:53:30.074Z,9.07
2023-03-01T20:57:36.079Z,7.97
2023-03-01T21:01:41.743Z,7.90
2023-03-01T21:05:47.228Z,8.00
2023-03-01T21:09:53.995Z,8.70
2023-03-01T21:13:59.566Z,8.50
2023-03-01T21:18:05.091Z,8.00
2023-03-01T21:22:15.529Z,8.13
2023-03-01T21:26:26.738Z,7.83
2023-03-01T21:30:32.252Z,8.27
2023-03-01T21:34:39.285Z,7.80
2023-03-01T21:38:47.031Z,8.23
2023-03-01T21:42:52.547Z,7.50
2023-03-01T21:47:01.636Z,8.37
2023-03-01T21:51:07.642Z,8.70
2023-03-01T21:55:13.781Z,8.17
2023-03-01T21:59:22.651Z,7.67
2023-03-01T22:03:28.180Z,9.20
2023-03-01T22:07:33.652Z,9.17
2023-03-01T22:11:42.796Z,8.83
2023-03-01T22:15:49.112Z,8.10
2023-03-01T22:19:54.713Z,9.13
2023-03-01T22:24:00.562Z,9.53
2023-03-01T22:28:06.049Z,9.17
2023-03-01T22:32:11.794Z,8.07
2023-03-01T22:36:17.717Z,9.40
2023-03-01T22:40:23.184Z,8.83
2023-03-01T22:44:28.808Z,8.43
2023-03-01T22:48:34.255Z,8.80
2023-03-01T22:52:39.793Z,9.50
2023-03-01T22:56:46.470Z,8.63
2023-03-01T23:00:52.061Z,8.57
2023-03-01T23:04:57.575Z,8.90
2023-03-01T23:09:06.870Z,10.27
2023-03-01T23:13:12.425Z,8.83
2023-03-01T23:17:17.856Z,13.70
2023-03-01T23:21:23.458Z,10.63
2023-03-01T23:25:28.916Z,26.00
2023-03-01T23:29:34.427Z,14.23
2023-03-01T23:33:43.119Z,14.33
2023-03-01T23:37:48.705Z,13.33
2023-03-01T23:41:54.199Z,13.57
2023-03-01T23:45:59.724Z,10.57
2023-03-01T23:50:05.915Z,11.07
2023-03-01T23:54:14.037Z,11.77
2023-03-01T23:58:20.323Z,10.23
